createdAt,value
2022-10-16T00:00:47.582Z,100337.38
2022-10-16T00:03:32.448Z,100340.72
2022-10-16T00:06:20.690Z,100352.06
2022-10-16T00:09:07.154Z,100338.09
2022-10-16T00:11:52.415Z,100342.47
2022-10-16T00:14:37.440Z,100322.63
2022-10-16T00:17:22.458Z,100347.31
2022-10-16T00:20:07.979Z,100343.16
2022-10-16T00:22:52.933Z,100338.53
2022-10-16T00:25:37.798Z,100337.56
2022-10-16T00:28:22.886Z,100325.56
2022-10-16T00:31:10.474Z,100345.97
2022-10-16T00:33:55.870Z,100346.69
2022-10-16T00:36:41.098Z,100345.13
2022-10-16T00:39:26.655Z,100359.09
2022-10-16T00:42:19.790Z,100353.03
2022-10-16T00:45:05.997Z,100353.84
2022-10-16T00:47:55.069Z,100357.19
2022-10-16T00:50:42.309Z,100335.63
2022-10-16T00:53:28.644Z,100369.00
2022-10-16T00:56:13.850Z,100371.63
2022-10-16T00:59:00.529Z,100382.81
2022-10-16T01:01:46.174Z,100378.66
2022-10-16T01:04:39.605Z,100388.34
2022-10-16T01:07:42.198Z,100379.50
2022-10-16T01:10:28.932Z,100366.53
2022-10-16T01:13:22.513Z,100378.84
2022-10-16T01:16:30.694Z,100397.44
2022-10-16T01:19:53.873Z,100395.50
2022-10-16T01:23:00.573Z,100400.75
2022-10-16T01:26:10.482Z,100403.78
2022-10-16T01:29:04.389Z,100394.38
2022-10-16T01:31:57.810Z,100390.56
2022-10-16T01:34:50.575Z,100380.81
2022-10-16T01:37:45.701Z,100399.28
2022-10-16T01:40:34.354Z,100393.34
2022-10-16T01:43:29.490Z,100371.75
2022-10-16T01:46:18.487Z,100401.34
2022-10-16T01:49:05.005Z,100403.97
2022-10-16T01:51:55.262Z,100411.94
2022-10-16T01:54:43.305Z,100408.88
2022-10-16T01:57:30.877Z,100403.75
2022-10-16T02:00:18.613Z,100370.53
2022-10-16T02:03:04.980Z,100415.44
2022-10-16T02:05:56.658Z,100408.53
2022-10-16T02:08:44.955Z,100421.69
2022-10-16T02:11:30.719Z,100417.41
2022-10-16T02:14:16.154Z,100415.00
2022-10-16T02:17:01.287Z,100425.28
2022-10-16T02:19:48.671Z,100427.66
2022-10-16T02:22:44.765Z,100432.28
2022-10-16T02:25:38.364Z,100415.22
2022-10-16T02:28:29.370Z,100437.28
2022-10-16T02:31:19.197Z,100441.09
2022-10-16T02:34:06.754Z,100458.22
2022-10-16T02:36:52.779Z,100435.56
2022-10-16T02:39:39.694Z,100433.16
2022-10-16T02:42:39.406Z,100449.84
2022-10-16T02:45:25.034Z,100436.03
2022-10-16T02:48:10.505Z,100461.59
2022-10-16T02:50:55.593Z,100453.97
2022-10-16T02:53:40.751Z,100441.22
2022-10-16T02:56:26.002Z,100462.31
2022-10-16T02:59:11.207Z,100467.56
2022-10-16T03:01:56.186Z,100448.38
2022-10-16T03:04:41.369Z,100459.47
2022-10-16T03:07:26.951Z,100464.94
2022-10-16T03:10:12.289Z,100478.69
2022-10-16T03:12:57.582Z,100480.44
2022-10-16T03:15:42.802Z,100495.72
2022-10-16T03:18:28.149Z,100494.06
2022-10-16T03:21:13.221Z,100497.91
2022-10-16T03:23:58.227Z,100506.00
2022-10-16T03:26:43.261Z,100503.63
2022-10-16T03:29:30.268Z,100474.59
2022-10-16T03:32:15.274Z,100505.56
2022-10-16T03:35:00.269Z,100515.94
2022-10-16T03:37:45.200Z,100520.22
2022-10-16T03:40:33.090Z,100511.41
2022-10-16T03:43:18.056Z,100522.63
2022-10-16T03:46:03.147Z,100528.34
2022-10-16T03:48:48.487Z,100527.50
2022-10-16T03:51:33.729Z,100540.84
2022-10-16T03:54:18.806Z,100543.00
2022-10-16T03:57:04.069Z,100546.81
2022-10-16T03:59:49.096Z,100538.34
2022-10-16T04:02:33.972Z,100546.34
2022-10-16T04:05:19.153Z,100551.94
2022-10-16T04:08:04.318Z,100527.69
2022-10-16T04:10:49.708Z,100534.00
2022-10-16T04:13:34.880Z,100565.88
2022-10-16T04:16:19.839Z,100558.09
2022-10-16T04:19:05.118Z,100566.13
2022-10-16T04:21:50.227Z,100558.44
2022-10-16T04:24:35.267Z,100563.56
2022-10-16T04:27:20.542Z,100582.44
2022-10-16T04:30:06.510Z,100591.25
2022-10-16T04:32:52.685Z,100590.66
2022-10-16T04:35:37.961Z,100602.34
2022-10-16T04:38:23.350Z,100606.13
2022-10-16T04:41:08.863Z,100603.41
2022-10-16T04:43:53.997Z,100615.66
2022-10-16T04:46:39.008Z,100608.50
2022-10-16T04:49:24.107Z,100619.94
2022-10-16T04:52:10.582Z,100621.69
2022-10-16T04:54:57.297Z,100627.09
2022-10-16T04:57:42.216Z,100622.06
2022-10-16T05:00:27.513Z,100629.47
2022-10-16T05:03:13.686Z,100633.88
2022-10-16T05:05:59.235Z,100627.81
2022-10-16T05:08:44.482Z,100645.94
2022-10-16T05:11:29.446Z,100647.09
2022-10-16T05:14:14.352Z,100652.25
2022-10-16T05:17:00.706Z,100657.59
2022-10-16T05:19:45.662Z,100675.03
2022-10-16T05:22:31.023Z,100673.09
2022-10-16T05:25:16.371Z,100685.53
2022-10-16T05:28:01.699Z,100677.84
2022-10-16T05:30:46.507Z,100680.69
2022-10-16T05:33:31.535Z,100673.06
2022-10-16T05:36:16.809Z,100674.13
2022-10-16T05:39:02.280Z,100684.50
2022-10-16T05:41:47.464Z,100683.03
2022-10-16T05:47:21.838Z,100698.28
2022-10-16T05:50:07.000Z,100696.09
2022-10-16T05:52:51.945Z,100709.72
2022-10-16T05:55:36.788Z,100714.97
2022-10-16T05:58:23.307Z,100718.63
2022-10-16T06:01:13.266Z,100731.16
2022-10-16T06:03:58.659Z,100716.03
2022-10-16T06:06:43.702Z,100717.44
2022-10-16T06:09:28.564Z,100741.97
2022-10-16T06:12:13.886Z,100725.31
2022-10-16T06:14:58.832Z,100753.94
2022-10-16T06:17:43.669Z,100754.03
2022-10-16T06:20:28.712Z,100766.63
2022-10-16T06:23:13.692Z,100760.75
2022-10-16T06:26:15.721Z,100762.44
2022-10-16T06:29:01.045Z,100747.97
2022-10-16T06:31:46.236Z,100767.47
2022-10-16T06:34:31.130Z,100760.88
2022-10-16T06:37:15.895Z,100770.81
2022-10-16T06:40:01.198Z,100772.78
2022-10-16T06:42:46.198Z,100773.91
2022-10-16T06:45:31.306Z,100785.63
2022-10-16T06:48:16.308Z,100770.56
2022-10-16T06:51:07.436Z,100782.91
2022-10-16T06:54:03.984Z,100805.75
2022-10-16T06:56:49.606Z,100782.56
2022-10-16T06:59:34.682Z,100811.28
2022-10-16T07:02:19.773Z,100808.88
2022-10-16T07:05:05.143Z,100812.81
2022-10-16T07:07:49.991Z,100820.59
2022-10-16T07:10:35.462Z,100830.03
2022-10-16T07:13:20.646Z,100825.41
2022-10-16T07:16:16.885Z,100841.88
2022-10-16T07:19:03.566Z,100834.44
2022-10-16T07:21:48.493Z,100844.28
2022-10-16T07:24:33.790Z,100842.72
2022-10-16T07:27:19.283Z,100827.50
2022-10-16T07:30:08.355Z,100860.47
2022-10-16T07:32:54.305Z,100865.69
2022-10-16T07:35:39.361Z,100856.63
2022-10-16T07:38:24.580Z,100874.09
2022-10-16T07:41:15.838Z,100877.09
2022-10-16T07:44:01.565Z,100889.03
2022-10-16T07:46:47.024Z,100887.03
2022-10-16T07:49:32.159Z,100884.66
2022-10-16T07:52:17.421Z,100886.75
2022-10-16T07:55:02.293Z,100888.88
2022-10-16T07:57:47.280Z,100898.53
2022-10-16T08:00:32.925Z,100892.66
2022-10-16T08:03:18.209Z,100875.25
2022-10-16T08:06:04.351Z,100894.56
2022-10-16T08:08:49.997Z,100890.34
2022-10-16T08:11:35.252Z,100905.03
2022-10-16T08:14:20.351Z,100910.56
2022-10-16T08:17:05.653Z,100924.44
2022-10-16T08:19:50.904Z,100896.09
2022-10-16T08:22:36.094Z,100925.34
2022-10-16T08:25:22.482Z,100926.00
2022-10-16T08:28:09.626Z,100928.06
2022-10-16T08:30:54.746Z,100921.78
2022-10-16T08:33:41.816Z,100935.50
2022-10-16T08:36:27.085Z,100941.50
2022-10-16T08:39:12.214Z,100939.25
2022-10-16T08:42:22.250Z,100924.91
2022-10-16T08:45:18.138Z,100947.28
2022-10-16T08:48:42.319Z,100941.88
2022-10-16T08:51:33.448Z,100951.78
2022-10-16T08:54:41.460Z,100950.59
2022-10-16T08:57:28.037Z,100958.44
2022-10-16T09:00:14.736Z,100968.50
2022-10-16T09:03:22.433Z,100976.91
2022-10-16T09:06:30.821Z,100975.38
2022-10-16T09:09:44.360Z,100972.09
2022-10-16T09:12:34.959Z,100975.13
2022-10-16T09:15:48.330Z,100980.16
2022-10-16T09:18:39.710Z,100967.22
2022-10-16T09:21:29.968Z,100981.78
2022-10-16T09:24:18.302Z,100982.06
2022-10-16T09:27:03.457Z,100975.34
2022-10-16T09:29:48.719Z,100980.41
2022-10-16T09:32:34.522Z,100983.41
2022-10-16T09:35:32.256Z,100985.63
2022-10-16T09:38:32.333Z,100974.28
2022-10-16T09:41:23.140Z,100986.28
2022-10-16T09:44:22.377Z,100971.47
2022-10-16T09:47:21.323Z,100980.56
2022-10-16T09:50:24.228Z,100999.94
2022-10-16T09:53:14.433Z,100982.47
2022-10-16T09:55:59.647Z,100997.53
2022-10-16T09:58:51.953Z,100979.13
2022-10-16T10:01:41.424Z,101003.53
2022-10-16T10:04:29.427Z,100996.00
2022-10-16T10:07:36.607Z,101011.34
2022-10-16T10:10:28.008Z,101013.84
2022-10-16T10:13:25.322Z,101012.06
2022-10-16T10:16:10.641Z,101016.59
2022-10-16T10:19:00.450Z,101028.44
2022-10-16T10:21:46.051Z,101030.47
2022-10-16T10:24:31.205Z,101021.03
2022-10-16T10:27:18.040Z,100999.72
2022-10-16T10:33:22.679Z,101010.94
2022-10-16T10:36:33.469Z,101013.25
2022-10-16T10:39:28.754Z,101010.81
2022-10-16T10:42:23.066Z,101011.28
2022-10-16T10:45:19.093Z,101010.28
2022-10-16T10:48:19.214Z,100991.09
2022-10-16T10:51:12.853Z,100994.44
2022-10-16T10:54:12.155Z,100998.47
2022-10-16T10:57:07.294Z,101002.97
2022-10-16T11:00:04.001Z,101000.13
2022-10-16T11:03:06.774Z,100978.91
2022-10-16T11:06:16.019Z,100995.53
2022-10-16T11:09:03.591Z,100999.38
2022-10-16T11:11:59.157Z,100975.19
2022-10-16T11:14:59.879Z,100979.16
2022-10-16T11:18:18.089Z,100989.72
2022-10-16T11:21:13.441Z,100996.72
2022-10-16T11:24:08.034Z,100990.06
2022-10-16T11:26:55.444Z,100953.75
2022-10-16T11:29:47.792Z,100974.34
2022-10-16T11:32:43.055Z,100974.50
2022-10-16T11:36:20.780Z,100981.13
2022-10-16T11:39:22.708Z,100992.22
2022-10-16T11:42:12.545Z,100991.69
2022-10-16T11:45:24.217Z,100995.09
2022-10-16T11:48:12.193Z,100998.06
2022-10-16T11:51:04.588Z,100998.34
2022-10-16T11:54:11.658Z,100993.47
2022-10-16T11:57:02.525Z,100990.94
2022-10-16T11:59:56.433Z,100992.03
2022-10-16T12:03:11.703Z,100972.38
2022-10-16T12:06:04.002Z,100976.59
2022-10-16T12:08:49.318Z,100986.75
2022-10-16T12:11:38.983Z,100987.19
2022-10-16T12:15:21.902Z,100984.56
2022-10-16T12:18:05.492Z,100968.97
2022-10-16T12:21:16.968Z,100975.66
2022-10-16T12:24:05.807Z,100964.63
2022-10-16T12:26:53.281Z,100964.78
2022-10-16T12:29:38.643Z,100957.81
2022-10-16T12:32:46.161Z,100962.03
2022-10-16T12:35:35.530Z,100945.97
2022-10-16T12:38:30.606Z,100964.25
2022-10-16T12:41:29.841Z,100959.78
2022-10-16T12:44:27.289Z,100960.34
2022-10-16T12:47:31.651Z,100960.91
2022-10-16T12:50:32.260Z,100954.78
2022-10-16T12:53:27.974Z,100953.25
2022-10-16T12:56:27.172Z,100966.63
2022-10-16T12:59:33.882Z,100970.09
2022-10-16T13:02:56.587Z,100960.63
2022-10-16T13:05:59.080Z,100965.91
2022-10-16T13:09:23.881Z,100980.41
2022-10-16T13:12:35.820Z,100970.94
2022-10-16T13:15:31.009Z,100971.22
2022-10-16T13:18:58.102Z,100965.94
2022-10-16T13:22:02.620Z,100963.44
2022-10-16T13:24:59.687Z,100958.84
2022-10-16T13:27:55.040Z,100923.47
2022-10-16T13:30:51.600Z,100951.03
2022-10-16T13:33:40.427Z,100943.09
2022-10-16T13:36:28.467Z,100952.69
2022-10-16T13:39:18.296Z,100954.22
2022-10-16T13:42:16.460Z,100950.22
2022-10-16T13:45:01.411Z,100937.53
2022-10-16T13:47:46.785Z,100936.94
2022-10-16T13:50:32.313Z,100947.53
2022-10-16T13:53:17.299Z,100950.31
2022-10-16T13:56:07.814Z,100955.88
2022-10-16T13:59:07.933Z,100955.75
2022-10-16T14:01:56.738Z,100939.47
2022-10-16T14:04:42.627Z,100937.53
2022-10-16T14:07:32.549Z,100955.47
2022-10-16T14:10:24.725Z,100942.25
2022-10-16T14:13:18.406Z,100942.66
2022-10-16T14:16:09.011Z,100928.31
2022-10-16T14:19:01.742Z,100932.91
2022-10-16T14:21:46.939Z,100942.38
2022-10-16T14:24:33.353Z,100946.13
2022-10-16T14:27:37.981Z,100936.66
2022-10-16T14:30:23.607Z,100933.03
2022-10-16T14:33:23.630Z,100931.06
2022-10-16T14:36:11.879Z,100937.19
2022-10-16T14:39:04.223Z,100944.28
2022-10-16T14:41:51.386Z,100961.69
2022-10-16T14:44:36.777Z,100940.00
2022-10-16T14:47:27.366Z,100939.44
2022-10-16T14:50:12.279Z,100918.53
2022-10-16T14:52:57.401Z,100938.28
2022-10-16T14:55:43.943Z,100947.22
2022-10-16T14:58:29.065Z,100935.06
2022-10-16T15:01:14.696Z,100945.91
2022-10-16T15:03:59.832Z,100945.50
2022-10-16T15:06:45.142Z,100944.25
2022-10-16T15:09:30.346Z,100955.22
2022-10-16T15:12:15.433Z,100964.63
2022-10-16T15:15:01.055Z,100951.25
2022-10-16T15:17:45.870Z,100944.56
2022-10-16T15:20:36.127Z,100966.84
2022-10-16T15:23:23.104Z,100962.38
2022-10-16T15:26:08.751Z,100940.63
2022-10-16T15:28:54.105Z,100950.94
2022-10-16T15:31:39.754Z,100936.47
2022-10-16T15:34:25.066Z,100930.19
2022-10-16T15:37:10.313Z,100922.44
2022-10-16T15:39:55.405Z,100939.22
2022-10-16T15:42:40.305Z,100942.97
2022-10-16T15:45:25.248Z,100948.41
2022-10-16T15:48:12.941Z,100938.94
2022-10-16T15:50:57.974Z,100947.84
2022-10-16T15:53:43.268Z,100938.56
2022-10-16T15:56:29.923Z,100962.78
2022-10-16T15:59:15.282Z,100939.41
2022-10-16T16:02:00.288Z,100942.75
2022-10-16T16:04:45.401Z,100937.59
2022-10-16T16:07:34.309Z,100923.13
2022-10-16T16:10:20.445Z,100935.22
2022-10-16T16:13:05.751Z,100927.56
2022-10-16T16:15:50.570Z,100919.19
2022-10-16T16:18:36.109Z,100925.31
2022-10-16T16:21:21.499Z,100900.66
2022-10-16T16:24:09.269Z,100900.28
2022-10-16T16:26:54.647Z,100923.06
2022-10-16T16:29:40.593Z,100921.78
2022-10-16T16:32:26.122Z,100908.13
2022-10-16T16:35:11.459Z,100868.53
2022-10-16T16:37:56.746Z,100868.25
2022-10-16T16:40:41.954Z,100877.38
2022-10-16T16:43:28.254Z,100848.00
2022-10-16T16:46:13.922Z,100866.06
2022-10-16T16:48:59.868Z,100857.72
2022-10-16T16:51:44.944Z,100850.44
2022-10-16T16:54:30.012Z,100857.78
2022-10-16T16:57:15.813Z,100849.03
2022-10-16T17:00:01.175Z,100824.00
2022-10-16T17:02:51.996Z,100795.69
2022-10-16T17:05:36.635Z,100826.69
2022-10-16T17:08:21.720Z,100817.44
2022-10-16T17:11:12.135Z,100852.59
2022-10-16T17:13:59.151Z,100852.16
2022-10-16T17:16:44.969Z,100846.03
2022-10-16T17:19:30.312Z,100844.94
2022-10-16T17:22:15.238Z,100851.03
2022-10-16T17:25:00.339Z,100862.31
2022-10-16T17:27:45.420Z,100850.56
2022-10-16T17:30:30.566Z,100835.75
2022-10-16T17:33:15.906Z,100870.09
2022-10-16T17:36:01.164Z,100876.78
2022-10-16T17:38:46.531Z,100868.03
2022-10-16T17:41:32.736Z,100872.47
2022-10-16T17:44:20.740Z,100866.63
2022-10-16T17:47:05.620Z,100869.13
2022-10-16T17:49:51.166Z,100843.06
2022-10-16T17:52:36.152Z,100869.94
2022-10-16T17:55:24.921Z,100877.84
2022-10-16T17:58:12.441Z,100867.47
2022-10-16T18:00:57.607Z,100862.44
2022-10-16T18:03:43.156Z,100868.28
2022-10-16T18:06:28.841Z,100870.81
2022-10-16T18:09:18.104Z,100873.31
2022-10-16T18:12:03.060Z,100881.09
2022-10-16T18:14:48.748Z,100886.94
2022-10-16T18:17:40.471Z,100866.63
2022-10-16T18:20:25.613Z,100880.59
2022-10-16T18:23:11.507Z,100883.31
2022-10-16T18:25:57.258Z,100871.91
2022-10-16T18:28:43.079Z,100861.66
2022-10-16T18:31:28.713Z,100851.91
2022-10-16T18:34:13.761Z,100869.47
2022-10-16T18:36:59.691Z,100871.38
2022-10-16T18:39:48.771Z,100862.66
2022-10-16T18:42:33.780Z,100860.25
2022-10-16T18:45:19.749Z,100869.84
2022-10-16T18:48:05.773Z,100858.47
2022-10-16T18:50:51.535Z,100854.00
2022-10-16T18:53:38.247Z,100851.63
2022-10-16T18:56:24.552Z,100847.91
2022-10-16T18:59:10.571Z,100846.22
2022-10-16T19:01:56.051Z,100836.38
2022-10-16T19:04:41.214Z,100831.00
2022-10-16T19:07:26.611Z,100830.03
2022-10-16T19:10:12.013Z,100821.16
2022-10-16T19:12:57.293Z,100818.66
2022-10-16T19:15:53.189Z,100819.75
2022-10-16T19:18:44.091Z,100814.47
2022-10-16T19:21:30.698Z,100817.81
2022-10-16T19:24:16.105Z,100809.47
2022-10-16T19:27:01.118Z,100784.72
2022-10-16T19:29:46.317Z,100818.00
2022-10-16T19:32:32.793Z,100798.72
2022-10-16T19:35:18.162Z,100794.53
2022-10-16T19:38:03.239Z,100797.19
2022-10-16T19:40:48.440Z,100801.22
2022-10-16T19:43:33.683Z,100791.75
2022-10-16T19:46:21.857Z,100802.03
2022-10-16T19:49:10.694Z,100794.00
2022-10-16T19:51:55.631Z,100788.75
2022-10-16T19:54:40.633Z,100787.19
2022-10-16T19:57:26.489Z,100787.66
2022-10-16T20:00:12.599Z,100770.81
2022-10-16T20:02:57.810Z,100790.16
2022-10-16T20:05:57.173Z,100770.66
2022-10-16T20:08:44.545Z,100792.69
2022-10-16T20:11:32.364Z,100792.69
2022-10-16T20:14:17.950Z,100796.88
2022-10-16T20:17:03.434Z,100784.66
2022-10-16T20:19:48.560Z,100800.78
2022-10-16T20:22:33.474Z,100767.91
2022-10-16T20:25:19.215Z,100790.50
2022-10-16T20:28:05.684Z,100790.50
2022-10-16T20:30:51.000Z,100802.19
2022-10-16T20:33:36.698Z,100786.44
2022-10-16T20:36:23.044Z,100799.56
2022-10-16T20:39:08.399Z,100795.94
2022-10-16T20:41:53.378Z,100793.50
2022-10-16T20:44:38.346Z,100811.06
2022-10-16T20:47:23.753Z,100810.69
2022-10-16T20:50:09.167Z,100787.06
2022-10-16T20:52:54.235Z,100790.28
2022-10-16T20:55:39.321Z,100755.16
2022-10-16T20:58:24.551Z,100760.22
2022-10-16T21:01:12.500Z,100776.69
2022-10-16T21:04:02.818Z,100790.31
2022-10-16T21:06:47.879Z,100792.81
2022-10-16T21:09:33.090Z,100757.34
2022-10-16T21:12:18.305Z,100759.78
2022-10-16T21:15:19.704Z,100770.06
2022-10-16T21:18:04.695Z,100755.94
2022-10-16T21:20:49.470Z,100753.72
2022-10-16T21:23:34.746Z,100767.59
2022-10-16T21:26:25.972Z,100769.13
2022-10-16T21:29:11.964Z,100747.06
2022-10-16T21:31:57.120Z,100725.09
2022-10-16T21:34:42.415Z,100752.91
2022-10-16T21:37:27.942Z,100748.47
2022-10-16T21:40:13.715Z,100746.50
2022-10-16T21:42:59.055Z,100764.03
2022-10-16T21:45:44.261Z,100734.81
2022-10-16T21:48:29.413Z,100772.38
2022-10-16T21:51:15.315Z,100752.94
2022-10-16T21:54:02.101Z,100748.34
2022-10-16T21:56:47.607Z,100741.13
2022-10-16T21:59:32.753Z,100731.13
2022-10-16T22:02:17.951Z,100710.13
2022-10-16T22:05:03.462Z,100722.38
2022-10-16T22:07:48.389Z,100728.34
2022-10-16T22:10:33.451Z,100717.38
2022-10-16T22:13:18.378Z,100705.84
2022-10-16T22:16:04.612Z,100698.75
2022-10-16T22:18:52.346Z,100707.94
2022-10-16T22:21:39.650Z,100706.81
2022-10-16T22:24:24.794Z,100715.44
2022-10-16T22:27:09.978Z,100710.56
2022-10-16T22:29:55.196Z,100712.53
2022-10-16T22:32:40.366Z,100714.91
2022-10-16T22:35:25.558Z,100725.19
2022-10-16T22:38:10.542Z,100718.47
2022-10-16T22:40:55.907Z,100729.22
2022-10-16T22:43:44.016Z,100728.50
2022-10-16T22:46:30.692Z,100728.81
2022-10-16T22:49:18.272Z,100728.53
2022-10-16T22:52:03.650Z,100722.03
2022-10-16T22:54:48.746Z,100717.81
2022-10-16T22:57:34.054Z,100709.31
2022-10-16T23:00:20.007Z,100728.41
2022-10-16T23:03:05.251Z,100724.81
2022-10-16T23:05:50.680Z,100714.38
2022-10-16T23:08:35.905Z,100732.16
2022-10-16T23:11:21.426Z,100737.72
2022-10-16T23:14:06.566Z,100727.00
2022-10-16T23:16:51.811Z,100732.00
2022-10-16T23:19:36.998Z,100728.25
2022-10-16T23:22:21.901Z,100720.31
2022-10-16T23:25:08.960Z,100733.94
2022-10-16T23:27:54.641Z,100705.44
2022-10-16T23:30:39.884Z,100713.78
2022-10-16T23:33:24.972Z,100725.44
2022-10-16T23:36:15.781Z,100730.31
2022-10-16T23:39:00.969Z,100712.38
2022-10-16T23:41:46.106Z,100720.84
2022-10-16T23:44:31.123Z,100701.81
2022-10-16T23:47:16.235Z,100742.13
2022-10-16T23:50:01.041Z,100740.84
2022-10-16T23:52:45.983Z,100762.56
2022-10-16T23:58:21.784Z,100738.19
